sensor_id;sensor_type;location;lat;lon;timestamp;P1;durP1;ratioP1;P2;durP2;ratioP2
7983;SDS011;4037;47.980;10.172;2023-11-19T00:01:57;1.80;;;1.70;;
7983;SDS011;4037;47.980;10.172;2023-11-19T00:04:23;1.80;;;1.60;;
7983;SDS011;4037;47.980;10.172;2023-11-19T00:06:49;1.30;;;1.17;;
7983;SDS011;4037;47.980;10.172;2023-11-19T00:09:15;1.20;;;1.20;;
7983;SDS011;4037;47.980;10.172;2023-11-19T00:11:43;1.53;;;1.40;;
7983;SDS011;4037;47.980;10.172;2023-11-19T00:14:09;2.57;;;1.40;;
7983;SDS011;4037;47.980;10.172;2023-11-19T00:16:38;2.37;;;1.50;;
7983;SDS011;4037;47.980;10.172;2023-11-19T00:19:04;2.13;;;1.90;;
7983;SDS011;4037;47.980;10.172;2023-11-19T00:21:30;1.90;;;1.57;;
7983;SDS011;4037;47.980;10.172;2023-11-19T00:23:58;1.90;;;1.67;;
7983;SDS011;4037;47.980;10.172;2023-11-19T00:26:24;1.70;;;1.60;;
7983;SDS011;4037;47.980;10.172;2023-11-19T00:28:50;1.73;;;1.63;;
7983;SDS011;4037;47.980;10.172;2023-11-19T00:31:17;3.30;;;2.00;;
7983;SDS011;4037;47.980;10.172;2023-11-19T00:33:43;1.40;;;1.30;;
7983;SDS011;4037;47.980;10.172;2023-11-19T00:36:09;1.70;;;1.60;;
7983;SDS011;4037;47.980;10.172;2023-11-19T00:38:36;1.60;;;1.50;;
7983;SDS011;4037;47.980;10.172;2023-11-19T00:41:02;1.70;;;1.60;;
7983;SDS011;4037;47.980;10.172;2023-11-19T00:43:29;2.20;;;1.70;;
7983;SDS011;4037;47.980;10.172;2023-11-19T00:45:55;2.30;;;2.10;;
7983;SDS011;4037;47.980;10.172;2023-11-19T00:48:21;3.90;;;1.90;;
7983;SDS011;4037;47.980;10.172;2023-11-19T00:50:47;2.10;;;1.80;;
7983;SDS011;4037;47.980;10.172;2023-11-19T00:53:13;2.20;;;2.00;;
7983;SDS011;4037;47.980;10.172;2023-11-19T00:55:39;3.63;;;2.33;;
7983;SDS011;4037;47.980;10.172;2023-11-19T00:58:05;2.20;;;2.00;;
7983;SDS011;4037;47.980;10.172;2023-11-19T01:00:31;1.93;;;1.77;;
7983;SDS011;4037;47.980;10.172;2023-11-19T01:02:57;2.17;;;1.97;;
7983;SDS011;4037;47.980;10.172;2023-11-19T01:05:25;2.13;;;1.93;;
7983;SDS011;4037;47.980;10.172;2023-11-19T01:07:51;3.57;;;1.80;;
7983;SDS011;4037;47.980;10.172;2023-11-19T01:10:18;2.77;;;2.33;;
7983;SDS011;4037;47.980;10.172;2023-11-19T01:12:45;2.83;;;2.10;;
7983;SDS011;4037;47.980;10.172;2023-11-19T01:15:12;1.87;;;1.77;;
7983;SDS011;4037;47.980;10.172;2023-11-19T01:17:38;2.37;;;2.17;;
7983;SDS011;4037;47.980;10.172;2023-11-19T01:20:04;2.40;;;1.90;;
7983;SDS011;4037;47.980;10.172;2023-11-19T01:22:31;2.47;;;2.27;;
7983;SDS011;4037;47.980;10.172;2023-11-19T01:24:57;2.00;;;1.87;;
7983;SDS011;4037;47.980;10.172;2023-11-19T01:27:23;3.47;;;2.30;;
7983;SDS011;4037;47.980;10.172;2023-11-19T01:29:50;2.20;;;2.00;;
7983;SDS011;4037;47.980;10.172;2023-11-19T01:32:16;2.13;;;1.93;;
7983;SDS011;4037;47.980;10.172;2023-11-19T01:34:42;2.60;;;1.90;;
7983;SDS011;4037;47.980;10.172;2023-11-19T01:37:07;1.80;;;1.70;;
7983;SDS011;4037;47.980;10.172;2023-11-19T01:39:35;1.83;;;1.70;;
7983;SDS011;4037;47.980;10.172;2023-11-19T01:42:01;1.77;;;1.67;;
7983;SDS011;4037;47.980;10.172;2023-11-19T01:44:33;1.60;;;1.50;;
7983;SDS011;4037;47.980;10.172;2023-11-19T01:47:03;2.10;;;1.70;;
7983;SDS011;4037;47.980;10.172;2023-11-19T01:49:30;1.63;;;1.53;;
7983;SDS011;4037;47.980;10.172;2023-11-19T01:51:57;1.93;;;1.73;;
7983;SDS011;4037;47.980;10.172;2023-11-19T01:54:23;1.53;;;1.30;;
7983;SDS011;4037;47.980;10.172;2023-11-19T01:56:49;1.53;;;1.40;;
7983;SDS011;4037;47.980;10.172;2023-11-19T01:59:15;1.40;;;1.30;;
7983;SDS011;4037;47.980;10.172;2023-11-19T02:01:41;1.50;;;1.40;;
7983;SDS011;4037;47.980;10.172;2023-11-19T02:04:08;1.77;;;1.57;;
7983;SDS011;4037;47.980;10.172;2023-11-19T02:06:34;1.50;;;1.40;;
7983;SDS011;4037;47.980;10.172;2023-11-19T02:09:01;1.67;;;1.53;;
7983;SDS011;4037;47.980;10.172;2023-11-19T02:11:32;1.50;;;1.40;;
7983;SDS011;4037;47.980;10.172;2023-11-19T02:14:01;1.60;;;1.50;;
7983;SDS011;4037;47.980;10.172;2023-11-19T02:16:29;1.70;;;1.60;;
7983;SDS011;4037;47.980;10.172;2023-11-19T02:18:55;1.40;;;1.30;;
7983;SDS011;4037;47.980;10.172;2023-11-19T02:21:21;1.60;;;1.50;;
7983;SDS011;4037;47.980;10.172;2023-11-19T02:23:47;3.37;;;1.30;;
7983;SDS011;4037;47.980;10.172;2023-11-19T02:26:25;1.30;;;1.20;;
7983;SDS011;4037;47.980;10.172;2023-11-19T02:28:53;1.97;;;1.50;;
7983;SDS011;4037;47.980;10.172;2023-11-19T02:31:19;1.77;;;1.40;;
7983;SDS011;4037;47.980;10.172;2023-11-19T02:33:46;1.50;;;1.40;;
7983;SDS011;4037;47.980;10.172;2023-11-19T02:36:12;1.70;;;1.60;;
7983;SDS011;4037;47.980;10.172;2023-11-19T02:38:38;1.80;;;1.70;;
7983;SDS011;4037;47.980;10.172;2023-11-19T02:41:04;2.60;;;1.60;;
7983;SDS011;4037;47.980;10.172;2023-11-19T02:43:34;1.77;;;1.43;;
7983;SDS011;4037;47.980;10.172;2023-11-19T02:46:01;2.93;;;1.53;;
7983;SDS011;4037;47.980;10.172;2023-11-19T02:48:27;3.30;;;2.00;;
7983;SDS011;4037;47.980;10.172;2023-11-19T02:50:53;1.83;;;1.73;;
7983;SDS011;4037;47.980;10.172;2023-11-19T02:53:19;1.50;;;1.40;;
7983;SDS011;4037;47.980;10.172;2023-11-19T02:55:47;1.80;;;1.50;;
7983;SDS011;4037;47.980;10.172;2023-11-19T02:58:15;1.30;;;1.20;;
7983;SDS011;4037;47.980;10.172;2023-11-19T03:00:49;1.50;;;1.40;;
7983;SDS011;4037;47.980;10.172;2023-11-19T03:03:34;1.67;;;1.50;;
7983;SDS011;4037;47.980;10.172;2023-11-19T03:06:04;1.50;;;1.40;;
7983;SDS011;4037;47.980;10.172;2023-11-19T03:08:31;1.40;;;1.30;;
7983;SDS011;4037;47.980;10.172;2023-11-19T03:10:57;1.40;;;1.30;;
7983;SDS011;4037;47.980;10.172;2023-11-19T03:13:24;1.57;;;1.47;;
7983;SDS011;4037;47.980;10.172;2023-11-19T03:15:50;1.33;;;1.23;;
7983;SDS011;4037;47.980;10.172;2023-11-19T03:18:16;2.00;;;1.67;;
7983;SDS011;4037;47.980;10.172;2023-11-19T03:20:42;1.40;;;1.30;;
7983;SDS011;4037;47.980;10.172;2023-11-19T03:23:08;1.30;;;1.20;;
7983;SDS011;4037;47.980;10.172;2023-11-19T03:25:35;1.53;;;1.37;;
7983;SDS011;4037;47.980;10.172;2023-11-19T03:28:01;1.20;;;1.13;;
7983;SDS011;4037;47.980;10.172;2023-11-19T03:30:28;1.57;;;1.47;;
7983;SDS011;4037;47.980;10.172;2023-11-19T03:32:57;1.40;;;1.30;;
7983;SDS011;4037;47.980;10.172;2023-11-19T03:35:24;1.50;;;1.40;;
7983;SDS011;4037;47.980;10.172;2023-11-19T03:37:50;1.50;;;1.40;;
7983;SDS011;4037;47.980;10.172;2023-11-19T03:40:17;1.63;;;1.50;;
7983;SDS011;4037;47.980;10.172;2023-11-19T03:42:44;1.33;;;1.23;;
7983;SDS011;4037;47.980;10.172;2023-11-19T03:45:10;2.60;;;1.50;;
7983;SDS011;4037;47.980;10.172;2023-11-19T03:47:37;9.33;;;1.60;;
7983;SDS011;4037;47.980;10.172;2023-11-19T03:50:03;1.70;;;1.60;;
7983;SDS011;4037;47.980;10.172;2023-11-19T03:52:29;2.60;;;1.60;;
7983;SDS011;4037;47.980;10.172;2023-11-19T03:54:58;1.60;;;1.40;;
7983;SDS011;4037;47.980;10.172;2023-11-19T03:57:27;1.47;;;1.37;;
7983;SDS011;4037;47.980;10.172;2023-11-19T03:59:53;1.80;;;1.70;;
7983;SDS011;4037;47.980;10.172;2023-11-19T04:02:20;1.63;;;1.50;;
7983;SDS011;4037;47.980;10.172;2023-11-19T04:04:46;1.97;;;1.73;;
7983;SDS011;4037;47.980;10.172;2023-11-19T04:07:13;1.80;;;1.70;;
7983;SDS011;4037;47.980;10.172;2023-11-19T04:09:40;1.73;;;1.50;;
7983;SDS011;4037;47.980;10.172;2023-11-19T04:12:12;2.37;;;2.13;;
7983;SDS011;4037;47.980;10.172;2023-11-19T04:14:38;2.47;;;2.27;;
7983;SDS011;4037;47.980;10.172;2023-11-19T04:17:05;2.07;;;1.60;;
7983;SDS011;4037;47.980;10.172;2023-11-19T04:19:31;1.40;;;1.30;;
7983;SDS011;4037;47.980;10.172;2023-11-19T04:21:58;1.97;;;1.63;;
7983;SDS011;4037;47.980;10.172;2023-11-19T04:24:24;2.20;;;1.90;;
7983;SDS011;4037;47.980;10.172;2023-11-19T04:26:50;1.93;;;1.83;;
7983;SDS011;4037;47.980;10.172;2023-11-19T04:29:32;1.83;;;1.67;;
7983;SDS011;4037;47.980;10.172;2023-11-19T04:32:00;1.97;;;1.57;;
7983;SDS011;4037;47.980;10.172;2023-11-19T04:34:26;1.60;;;1.50;;
7983;SDS011;4037;47.980;10.172;2023-11-19T04:36:52;1.77;;;1.67;;
7983;SDS011;4037;47.980;10.172;2023-11-19T04:39:19;1.57;;;1.40;;
7983;SDS011;4037;47.980;10.172;2023-11-19T04:41:46;1.87;;;1.73;;
7983;SDS011;4037;47.980;10.172;2023-11-19T04:44:16;1.60;;;1.50;;
7983;SDS011;4037;47.980;10.172;2023-11-19T04:46:42;2.50;;;1.60;;
7983;SDS011;4037;47.980;10.172;2023-11-19T04:49:09;1.67;;;1.57;;
7983;SDS011;4037;47.980;10.172;2023-11-19T04:51:42;1.60;;;1.50;;
7983;SDS011;4037;47.980;10.172;2023-11-19T04:54:08;1.80;;;1.70;;
7983;SDS011;4037;47.980;10.172;2023-11-19T04:56:35;2.00;;;1.70;;
7983;SDS011;4037;47.980;10.172;2023-11-19T04:59:05;2.00;;;1.70;;
7983;SDS011;4037;47.980;10.172;2023-11-19T05:01:34;1.63;;;1.40;;
7983;SDS011;4037;47.980;10.172;2023-11-19T05:04:03;2.10;;;1.67;;
7983;SDS011;4037;47.980;10.172;2023-11-19T05:06:30;1.90;;;1.67;;
7983;SDS011;4037;47.980;10.172;2023-11-19T05:08:56;2.57;;;2.37;;
7983;SDS011;4037;47.980;10.172;2023-11-19T05:11:22;3.13;;;1.97;;
7983;SDS011;4037;47.980;10.172;2023-11-19T05:13:48;2.47;;;2.27;;
7983;SDS011;4037;47.980;10.172;2023-11-19T05:16:15;2.50;;;1.93;;
7983;SDS011;4037;47.980;10.172;2023-11-19T05:18:45;1.80;;;1.60;;
7983;SDS011;4037;47.980;10.172;2023-11-19T05:21:11;2.87;;;1.93;;
7983;SDS011;4037;47.980;10.172;2023-11-19T05:23:38;2.73;;;2.17;;
7983;SDS011;4037;47.980;10.172;2023-11-19T05:26:04;2.37;;;2.17;;
7983;SDS011;4037;47.980;10.172;2023-11-19T05:28:30;2.13;;;1.80;;
7983;SDS011;4037;47.980;10.172;2023-11-19T05:30:57;1.90;;;1.80;;
7983;SDS011;4037;47.980;10.172;2023-11-19T05:33:23;1.90;;;1.80;;
7983;SDS011;4037;47.980;10.172;2023-11-19T05:35:49;1.70;;;1.40;;
7983;SDS011;4037;47.980;10.172;2023-11-19T05:38:15;1.87;;;1.63;;
7983;SDS011;4037;47.980;10.172;2023-11-19T05:40:41;2.27;;;1.57;;
7983;SDS011;4037;47.980;10.172;2023-11-19T05:43:07;1.90;;;1.80;;
7983;SDS011;4037;47.980;10.172;2023-11-19T05:45:33;2.90;;;1.80;;
7983;SDS011;4037;47.980;10.172;2023-11-19T05:47:59;1.77;;;1.67;;
7983;SDS011;4037;47.980;10.172;2023-11-19T05:50:25;2.13;;;1.50;;
7983;SDS011;4037;47.980;10.172;2023-11-19T05:52:51;1.50;;;1.40;;
7983;SDS011;4037;47.980;10.172;2023-11-19T05:55:18;1.23;;;1.13;;
7983;SDS011;4037;47.980;10.172;2023-11-19T05:57:44;1.40;;;1.30;;
7983;SDS011;4037;47.980;10.172;2023-11-19T06:00:14;1.20;;;1.10;;
7983;SDS011;4037;47.980;10.172;2023-11-19T06:02:40;1.40;;;1.30;;
7983;SDS011;4037;47.980;10.172;2023-11-19T06:05:06;1.30;;;1.20;;
7983;SDS011;4037;47.980;10.172;2023-11-19T06:07:32;1.13;;;1.03;;
7983;SDS011;4037;47.980;10.172;2023-11-19T06:10:00;1.50;;;1.40;;
7983;SDS011;4037;47.980;10.172;2023-11-19T06:12:26;1.40;;;1.30;;
7983;SDS011;4037;47.980;10.172;2023-11-19T06:14:52;1.20;;;1.10;;
7983;SDS011;4037;47.980;10.172;2023-11-19T06:17:18;1.07;;;1.07;;
7983;SDS011;4037;47.980;10.172;2023-11-19T06:19:45;1.00;;;0.93;;
7983;SDS011;4037;47.980;10.172;2023-11-19T06:22:11;1.30;;;1.20;;
7983;SDS011;4037;47.980;10.172;2023-11-19T06:24:37;1.37;;;1.27;;
7983;SDS011;4037;47.980;10.172;2023-11-19T06:27:03;1.40;;;1.30;;
7983;SDS011;4037;47.980;10.172;2023-11-19T06:29:29;1.10;;;1.00;;
7983;SDS011;4037;47.980;10.172;2023-11-19T06:31:55;1.23;;;1.13;;
7983;SDS011;4037;47.980;10.172;2023-11-19T06:34:22;1.00;;;1.00;;
7983;SDS011;4037;47.980;10.172;2023-11-19T06:36:48;1.10;;;1.00;;
7983;SDS011;4037;47.980;10.172;2023-11-19T06:39:14;1.37;;;1.27;;
7983;SDS011;4037;47.980;10.172;2023-11-19T06:41:46;1.50;;;1.40;;
7983;SDS011;4037;47.980;10.172;2023-11-19T06:44:12;1.97;;;1.70;;
7983;SDS011;4037;47.980;10.172;2023-11-19T06:46:39;1.40;;;1.30;;
7983;SDS011;4037;47.980;10.172;2023-11-19T06:49:05;2.07;;;1.70;;
7983;SDS011;4037;47.980;10.172;2023-11-19T06:51:32;2.00;;;1.87;;
7983;SDS011;4037;47.980;10.172;2023-11-19T06:53:59;1.70;;;1.60;;
7983;SDS011;4037;47.980;10.172;2023-11-19T06:56:25;2.13;;;2.00;;
7983;SDS011;4037;47.980;10.172;2023-11-19T06:58:52;2.03;;;1.83;;
7983;SDS011;4037;47.980;10.172;2023-11-19T07:01:18;2.23;;;2.03;;
7983;SDS011;4037;47.980;10.172;2023-11-19T07:03:45;3.10;;;1.93;;
7983;SDS011;4037;47.980;10.172;2023-11-19T07:06:11;2.20;;;2.00;;
7983;SDS011;4037;47.980;10.172;2023-11-19T07:08:41;2.33;;;2.13;;
7983;SDS011;4037;47.980;10.172;2023-11-19T07:11:09;1.77;;;1.67;;
7983;SDS011;4037;47.980;10.172;2023-11-19T07:13:36;1.93;;;1.83;;
7983;SDS011;4037;47.980;10.172;2023-11-19T07:16:02;2.10;;;1.90;;
7983;SDS011;4037;47.980;10.172;2023-11-19T07:18:28;2.20;;;2.03;;
7983;SDS011;4037;47.980;10.172;2023-11-19T07:20:54;3.37;;;2.27;;
7983;SDS011;4037;47.980;10.172;2023-11-19T07:23:20;1.70;;;1.60;;
7983;SDS011;4037;47.980;10.172;2023-11-19T07:25:46;1.80;;;1.70;;
7983;SDS011;4037;47.980;10.172;2023-11-19T07:28:15;1.77;;;1.67;;
7983;SDS011;4037;47.980;10.172;2023-11-19T07:30:41;1.80;;;1.70;;
7983;SDS011;4037;47.980;10.172;2023-11-19T07:33:07;2.27;;;1.53;;
7983;SDS011;4037;47.980;10.172;2023-11-19T07:35:34;1.70;;;1.60;;
7983;SDS011;4037;47.980;10.172;2023-11-19T07:38:00;1.60;;;1.50;;
7983;SDS011;4037;47.980;10.172;2023-11-19T07:40:35;1.90;;;1.70;;
7983;SDS011;4037;47.980;10.172;2023-11-19T07:43:01;2.17;;;1.70;;
7983;SDS011;4037;47.980;10.172;2023-11-19T07:45:27;1.47;;;1.30;;
7983;SDS011;4037;47.980;10.172;2023-11-19T07:47:53;2.27;;;1.77;;
7983;SDS011;4037;47.980;10.172;2023-11-19T07:50:20;1.73;;;1.53;;
7983;SDS011;4037;47.980;10.172;2023-11-19T07:52:46;1.90;;;1.70;;
7983;SDS011;4037;47.980;10.172;2023-11-19T07:55:15;1.40;;;1.30;;
7983;SDS011;4037;47.980;10.172;2023-11-19T07:57:41;1.50;;;1.40;;
7983;SDS011;4037;47.980;10.172;2023-11-19T08:00:07;1.67;;;1.57;;
7983;SDS011;4037;47.980;10.172;2023-11-19T08:02:37;2.77;;;2.00;;
7983;SDS011;4037;47.980;10.172;2023-11-19T08:05:03;2.00;;;1.77;;
7983;SDS011;4037;47.980;10.172;2023-11-19T08:07:30;1.73;;;1.47;;
7983;SDS011;4037;47.980;10.172;2023-11-19T08:09:56;2.23;;;1.70;;
7983;SDS011;4037;47.980;10.172;2023-11-19T08:12:25;2.43;;;1.70;;
7983;SDS011;4037;47.980;10.172;2023-11-19T08:14:51;1.30;;;1.20;;
7983;SDS011;4037;47.980;10.172;2023-11-19T08:17:17;3.00;;;1.77;;
7983;SDS011;4037;47.980;10.172;2023-11-19T08:19:43;1.50;;;1.20;;
7983;SDS011;4037;47.980;10.172;2023-11-19T08:22:09;1.53;;;1.43;;
7983;SDS011;4037;47.980;10.172;2023-11-19T08:24:35;1.83;;;1.60;;
7983;SDS011;4037;47.980;10.172;2023-11-19T08:27:04;1.60;;;1.30;;
7983;SDS011;4037;47.980;10.172;2023-11-19T08:29:30;1.80;;;1.60;;
7983;SDS011;4037;47.980;10.172;2023-11-19T08:31:56;1.20;;;1.10;;
7983;SDS011;4037;47.980;10.172;2023-11-19T08:34:22;2.00;;;1.80;;
7983;SDS011;4037;47.980;10.172;2023-11-19T08:36:51;1.50;;;1.20;;
7983;SDS011;4037;47.980;10.172;2023-11-19T08:39:20;1.43;;;1.33;;
7983;SDS011;4037;47.980;10.172;2023-11-19T08:41:47;1.40;;;1.30;;
7983;SDS011;4037;47.980;10.172;2023-11-19T08:44:13;1.27;;;1.17;;
7983;SDS011;4037;47.980;10.172;2023-11-19T08:46:45;32.10;;;3.53;;
7983;SDS011;4037;47.980;10.172;2023-11-19T08:49:11;1.17;;;1.07;;
7983;SDS011;4037;47.980;10.172;2023-11-19T08:51:37;1.40;;;1.30;;
7983;SDS011;4037;47.980;10.172;2023-11-19T08:54:06;1.67;;;1.40;;
7983;SDS011;4037;47.980;10.172;2023-11-19T08:56:33;1.20;;;1.10;;
7983;SDS011;4037;47.980;10.172;2023-11-19T08:59:00;1.47;;;1.00;;
7983;SDS011;4037;47.980;10.172;2023-11-19T09:01:26;1.87;;;1.20;;
7983;SDS011;4037;47.980;10.172;2023-11-19T09:03:53;0.90;;;0.87;;
7983;SDS011;4037;47.980;10.172;2023-11-19T09:06:19;1.07;;;0.90;;
7983;SDS011;4037;47.980;10.172;2023-11-19T09:08:45;0.93;;;0.93;;
7983;SDS011;4037;47.980;10.172;2023-11-19T09:11:11;3.43;;;1.17;;
7983;SDS011;4037;47.980;10.172;2023-11-19T09:13:37;1.60;;;1.47;;
7983;SDS011;4037;47.980;10.172;2023-11-19T09:16:03;1.30;;;1.20;;
7983;SDS011;4037;47.980;10.172;2023-11-19T09:18:30;1.17;;;1.00;;
7983;SDS011;4037;47.980;10.172;2023-11-19T09:20:57;2.77;;;1.10;;
7983;SDS011;4037;47.980;10.172;2023-11-19T09:23:23;1.07;;;0.97;;
7983;SDS011;4037;47.980;10.172;2023-11-19T09:25:50;0.97;;;0.90;;
7983;SDS011;4037;47.980;10.172;2023-11-19T09:28:16;1.10;;;1.00;;
7983;SDS011;4037;47.980;10.172;2023-11-19T09:30:42;0.80;;;0.80;;
7983;SDS011;4037;47.980;10.172;2023-11-19T09:33:08;3.57;;;1.20;;
7983;SDS011;4037;47.980;10.172;2023-11-19T09:35:34;1.43;;;1.00;;
7983;SDS011;4037;47.980;10.172;2023-11-19T09:38:00;0.97;;;0.97;;
7983;SDS011;4037;47.980;10.172;2023-11-19T09:40:27;0.83;;;0.83;;
7983;SDS011;4037;47.980;10.172;2023-11-19T09:42:53;1.00;;;1.00;;
7983;SDS011;4037;47.980;10.172;2023-11-19T09:45:20;0.87;;;0.83;;
7983;SDS011;4037;47.980;10.172;2023-11-19T09:47:47;0.80;;;0.80;;
7983;SDS011;4037;47.980;10.172;2023-11-19T09:50:17;1.00;;;1.00;;
7983;SDS011;4037;47.980;10.172;2023-11-19T09:52:43;0.77;;;0.77;;
7983;SDS011;4037;47.980;10.172;2023-11-19T09:55:10;1.20;;;1.00;;
7983;SDS011;4037;47.980;10.172;2023-11-19T09:57:37;1.00;;;0.90;;
7983;SDS011;4037;47.980;10.172;2023-11-19T10:00:04;1.50;;;1.37;;
7983;SDS011;4037;47.980;10.172;2023-11-19T10:02:32;0.70;;;0.70;;
7983;SDS011;4037;47.980;10.172;2023-11-19T10:05:01;0.83;;;0.80;;
7983;SDS011;4037;47.980;10.172;2023-11-19T10:07:30;0.70;;;0.70;;
7983;SDS011;4037;47.980;10.172;2023-11-19T10:09:58;0.80;;;0.80;;
7983;SDS011;4037;47.980;10.172;2023-11-19T10:12:25;0.90;;;0.90;;
7983;SDS011;4037;47.980;10.172;2023-11-19T10:14:52;0.80;;;0.80;;
7983;SDS011;4037;47.980;10.172;2023-11-19T10:17:18;1.20;;;0.70;;
7983;SDS011;4037;47.980;10.172;2023-11-19T10:19:44;0.80;;;0.80;;
7983;SDS011;4037;47.980;10.172;2023-11-19T10:22:10;0.80;;;0.77;;
7983;SDS011;4037;47.980;10.172;2023-11-19T10:24:36;1.20;;;0.90;;
7983;SDS011;4037;47.980;10.172;2023-11-19T10:27:06;0.90;;;0.90;;
7983;SDS011;4037;47.980;10.172;2023-11-19T10:29:35;0.93;;;0.80;;
7983;SDS011;4037;47.980;10.172;2023-11-19T10:32:01;0.60;;;0.60;;
7983;SDS011;4037;47.980;10.172;2023-11-19T10:34:27;1.00;;;0.90;;
7983;SDS011;4037;47.980;10.172;2023-11-19T10:36:55;0.73;;;0.73;;
7983;SDS011;4037;47.980;10.172;2023-11-19T10:39:21;0.77;;;0.77;;
7983;SDS011;4037;47.980;10.172;2023-11-19T10:41:48;0.70;;;0.70;;
7983;SDS011;4037;47.980;10.172;2023-11-19T10:44:33;2.00;;;1.10;;
7983;SDS011;4037;47.980;10.172;2023-11-19T10:47:05;1.27;;;0.80;;
7983;SDS011;4037;47.980;10.172;2023-11-19T10:49:31;0.90;;;0.90;;
7983;SDS011;4037;47.980;10.172;2023-11-19T10:52:00;0.80;;;0.80;;
7983;SDS011;4037;47.980;10.172;2023-11-19T10:54:27;0.70;;;0.70;;
7983;SDS011;4037;47.980;10.172;2023-11-19T10:56:59;0.97;;;0.90;;
7983;SDS011;4037;47.980;10.172;2023-11-19T10:59:29;0.60;;;0.60;;
7983;SDS011;4037;47.980;10.172;2023-11-19T11:01:57;0.63;;;0.63;;
7983;SDS011;4037;47.980;10.172;2023-11-19T11:04:24;1.03;;;0.90;;
7983;SDS011;4037;47.980;10.172;2023-11-19T11:06:54;0.60;;;0.60;;
7983;SDS011;4037;47.980;10.172;2023-11-19T11:09:26;0.60;;;0.60;;
7983;SDS011;4037;47.980;10.172;2023-11-19T11:11:52;0.80;;;0.80;;
7983;SDS011;4037;47.980;10.172;2023-11-19T11:14:20;1.20;;;0.70;;
7983;SDS011;4037;47.980;10.172;2023-11-19T11:16:46;0.87;;;0.80;;
7983;SDS011;4037;47.980;10.172;2023-11-19T11:19:15;1.23;;;1.00;;
7983;SDS011;4037;47.980;10.172;2023-11-19T11:21:42;1.37;;;1.17;;
7983;SDS011;4037;47.980;10.172;2023-11-19T11:34:40;0.87;;;0.83;;
7983;SDS011;4037;47.980;10.172;2023-11-19T11:39:39;1.50;;;0.80;;
7983;SDS011;4037;47.980;10.172;2023-11-19T11:47:25;0.80;;;0.80;;
7983;SDS011;4037;47.980;10.172;2023-11-19T11:49:55;0.67;;;0.67;;
7983;SDS011;4037;47.980;10.172;2023-11-19T11:52:22;0.80;;;0.80;;
7983;SDS011;4037;47.980;10.172;2023-11-19T11:54:49;0.73;;;0.70;;
7983;SDS011;4037;47.980;10.172;2023-11-19T11:57:15;0.70;;;0.70;;
7983;SDS011;4037;47.980;10.172;2023-11-19T11:59:45;0.80;;;0.80;;
7983;SDS011;4037;47.980;10.172;2023-11-19T12:02:12;0.70;;;0.70;;
7983;SDS011;4037;47.980;10.172;2023-11-19T12:04:41;0.70;;;0.70;;
7983;SDS011;4037;47.980;10.172;2023-11-19T12:09:37;0.80;;;0.70;;
7983;SDS011;4037;47.980;10.172;2023-11-19T12:20:00;1.23;;;1.13;;
7983;SDS011;4037;47.980;10.172;2023-11-19T12:22:26;1.23;;;0.80;;
7983;SDS011;4037;47.980;10.172;2023-11-19T12:24:55;0.80;;;0.80;;
7983;SDS011;4037;47.980;10.172;2023-11-19T12:27:22;0.80;;;0.80;;
7983;SDS011;4037;47.980;10.172;2023-11-19T12:29:48;0.77;;;0.70;;
7983;SDS011;4037;47.980;10.172;2023-11-19T12:32:14;0.87;;;0.87;;
7983;SDS011;4037;47.980;10.172;2023-11-19T12:34:40;0.77;;;0.63;;
7983;SDS011;4037;47.980;10.172;2023-11-19T12:37:07;0.60;;;0.60;;
7983;SDS011;4037;47.980;10.172;2023-11-19T12:39:34;0.60;;;0.60;;
7983;SDS011;4037;47.980;10.172;2023-11-19T12:42:00;0.50;;;0.50;;
7983;SDS011;4037;47.980;10.172;2023-11-19T12:44:27;1.27;;;1.03;;
7983;SDS011;4037;47.980;10.172;2023-11-19T12:47:02;0.60;;;0.60;;
7983;SDS011;4037;47.980;10.172;2023-11-19T12:49:29;0.60;;;0.60;;
7983;SDS011;4037;47.980;10.172;2023-11-19T12:51:55;0.50;;;0.50;;
7983;SDS011;4037;47.980;10.172;2023-11-19T12:54:34;0.70;;;0.70;;
7983;SDS011;4037;47.980;10.172;2023-11-19T12:57:00;1.17;;;0.83;;
7983;SDS011;4037;47.980;10.172;2023-11-19T12:59:26;0.93;;;0.87;;
7983;SDS011;4037;47.980;10.172;2023-11-19T13:04:21;1.07;;;0.97;;
7983;SDS011;4037;47.980;10.172;2023-11-19T13:06:49;0.70;;;0.70;;
7983;SDS011;4037;47.980;10.172;2023-11-19T13:09:24;0.60;;;0.60;;
7983;SDS011;4037;47.980;10.172;2023-11-19T13:11:51;0.70;;;0.70;;
7983;SDS011;4037;47.980;10.172;2023-11-19T13:14:17;0.80;;;0.80;;
7983;SDS011;4037;47.980;10.172;2023-11-19T13:16:44;0.60;;;0.60;;
7983;SDS011;4037;47.980;10.172;2023-11-19T13:19:13;0.50;;;0.50;;
7983;SDS011;4037;47.980;10.172;2023-11-19T13:21:39;0.60;;;0.60;;
7983;SDS011;4037;47.980;10.172;2023-11-19T13:24:08;0.60;;;0.60;;
7983;SDS011;4037;47.980;10.172;2023-11-19T13:26:34;0.60;;;0.60;;
7983;SDS011;4037;47.980;10.172;2023-11-19T13:29:00;0.60;;;0.60;;
7983;SDS011;4037;47.980;10.172;2023-11-19T13:31:26;0.83;;;0.83;;
7983;SDS011;4037;47.980;10.172;2023-11-19T13:33:53;0.60;;;0.60;;
7983;SDS011;4037;47.980;10.172;2023-11-19T13:36:19;0.70;;;0.70;;
7983;SDS011;4037;47.980;10.172;2023-11-19T13:38:45;0.67;;;0.67;;
7983;SDS011;4037;47.980;10.172;2023-11-19T13:41:12;0.90;;;0.80;;
7983;SDS011;4037;47.980;10.172;2023-11-19T13:43:38;0.70;;;0.70;;
7983;SDS011;4037;47.980;10.172;2023-11-19T13:46:04;0.60;;;0.60;;
7983;SDS011;4037;47.980;10.172;2023-11-19T13:48:30;1.27;;;1.17;;
7983;SDS011;4037;47.980;10.172;2023-11-19T13:50:57;2.33;;;0.70;;
7983;SDS011;4037;47.980;10.172;2023-11-19T13:53:23;0.93;;;0.83;;
7983;SDS011;4037;47.980;10.172;2023-11-19T13:55:49;1.10;;;1.00;;
7983;SDS011;4037;47.980;10.172;2023-11-19T13:58:15;0.70;;;0.70;;
7983;SDS011;4037;47.980;10.172;2023-11-19T14:00:42;0.80;;;0.80;;
7983;SDS011;4037;47.980;10.172;2023-11-19T14:03:08;1.00;;;0.90;;
7983;SDS011;4037;47.980;10.172;2023-11-19T14:05:37;1.23;;;1.13;;
7983;SDS011;4037;47.980;10.172;2023-11-19T14:08:04;1.03;;;0.93;;
7983;SDS011;4037;47.980;10.172;2023-11-19T14:10:39;0.77;;;0.77;;
7983;SDS011;4037;47.980;10.172;2023-11-19T14:13:06;4.23;;;0.87;;
7983;SDS011;4037;47.980;10.172;2023-11-19T14:15:32;1.57;;;1.00;;
7983;SDS011;4037;47.980;10.172;2023-11-19T14:17:58;1.10;;;1.00;;
7983;SDS011;4037;47.980;10.172;2023-11-19T14:20:24;0.80;;;0.80;;
7983;SDS011;4037;47.980;10.172;2023-11-19T14:22:50;4.60;;;0.83;;
7983;SDS011;4037;47.980;10.172;2023-11-19T14:25:17;2.23;;;1.37;;
7983;SDS011;4037;47.980;10.172;2023-11-19T14:27:44;1.67;;;1.47;;
7983;SDS011;4037;47.980;10.172;2023-11-19T14:30:13;960.10;;;665.20;;
7983;SDS011;4037;47.980;10.172;2023-11-19T14:32:42;1291.60;;;399.37;;
7983;SDS011;4037;47.980;10.172;2023-11-19T14:35:10;577.60;;;341.67;;
7983;SDS011;4037;47.980;10.172;2023-11-19T14:37:36;30.43;;;22.20;;
7983;SDS011;4037;47.980;10.172;2023-11-19T14:40:02;10.37;;;9.33;;
7983;SDS011;4037;47.980;10.172;2023-11-19T14:42:30;7.60;;;6.90;;
7983;SDS011;4037;47.980;10.172;2023-11-19T14:44:56;7.27;;;5.87;;
7983;SDS011;4037;47.980;10.172;2023-11-19T14:47:22;23.57;;;14.13;;
7983;SDS011;4037;47.980;10.172;2023-11-19T14:49:48;15.20;;;8.77;;
7983;SDS011;4037;47.980;10.172;2023-11-19T14:52:14;42.33;;;28.83;;
7983;SDS011;4037;47.980;10.172;2023-11-19T14:54:40;141.17;;;100.53;;
7983;SDS011;4037;47.980;10.172;2023-11-19T14:57:06;22.00;;;15.97;;
7983;SDS011;4037;47.980;10.172;2023-11-19T14:59:33;4.20;;;2.90;;
7983;SDS011;4037;47.980;10.172;2023-11-19T15:02:00;1.60;;;0.90;;
7983;SDS011;4037;47.980;10.172;2023-11-19T15:04:26;1.00;;;0.90;;
7983;SDS011;4037;47.980;10.172;2023-11-19T15:06:52;0.97;;;0.90;;
7983;SDS011;4037;47.980;10.172;2023-11-19T15:09:18;0.70;;;0.70;;
7983;SDS011;4037;47.980;10.172;2023-11-19T15:11:46;4.83;;;1.90;;
7983;SDS011;4037;47.980;10.172;2023-11-19T15:14:15;14.50;;;10.67;;
7983;SDS011;4037;47.980;10.172;2023-11-19T15:16:43;2.47;;;2.23;;
7983;SDS011;4037;47.980;10.172;2023-11-19T15:19:10;1.27;;;1.03;;
7983;SDS011;4037;47.980;10.172;2023-11-19T15:21:37;0.63;;;0.57;;
7983;SDS011;4037;47.980;10.172;2023-11-19T15:24:03;0.70;;;0.70;;
7983;SDS011;4037;47.980;10.172;2023-11-19T15:26:32;1.33;;;1.17;;
7983;SDS011;4037;47.980;10.172;2023-11-19T15:28:58;0.60;;;0.60;;
7983;SDS011;4037;47.980;10.172;2023-11-19T15:31:24;4.40;;;1.57;;